createdAt,value
2022-11-19T00:20:40.239Z,6
2022-11-19T00:49:15.082Z,6
2022-11-19T01:17:47.196Z,3
2022-11-19T01:46:24.667Z,4
2022-11-19T02:15:01.048Z,6
2022-11-19T02:43:32.590Z,4
2022-11-19T03:12:09.974Z,4
2022-11-19T03:40:54.494Z,4
2022-11-19T04:09:24.652Z,6
2022-11-19T04:38:07.109Z,6
2022-11-19T05:06:44.644Z,6
2022-11-19T05:35:19.375Z,6
2022-11-19T06:03:39.536Z,6
2022-11-19T06:32:05.009Z,13
2022-11-19T07:00:43.060Z,13
2022-11-19T07:29:14.400Z,16
2022-11-19T07:57:51.014Z,10
2022-11-19T08:26:33.319Z,11
2022-11-19T08:55:18.532Z,12
2022-11-19T09:23:49.817Z,10
2022-11-19T09:52:13.700Z,7
2022-11-19T10:20:47.378Z,5
2022-11-19T10:49:14.963Z,8
2022-11-19T11:17:50.927Z,10
2022-11-19T11:46:13.947Z,10
2022-11-19T12:14:42.205Z,14
2022-11-19T12:43:17.620Z,7
2022-11-19T13:11:47.839Z,8
2022-11-19T13:40:17.248Z,10
2022-11-19T14:08:35.650Z,7
2022-11-19T14:37:08.485Z,6
2022-11-19T15:05:40.691Z,10
2022-11-19T15:34:11.151Z,19
2022-11-19T16:30:45.623Z,29
2022-11-19T17:28:37.601Z,17
2022-11-19T18:25:52.367Z,17
2022-11-19T18:54:32.334Z,16
2022-11-19T19:22:57.963Z,23
2022-11-19T19:51:07.674Z,17
2022-11-19T20:19:36.909Z,13
2022-11-19T20:48:22.496Z,13
2022-11-19T21:16:44.116Z,13
2022-11-19T21:45:27.528Z,13
2022-11-19T22:42:59.035Z,14
2022-11-19T23:11:23.469Z,14
2022-11-19T23:39:58.638Z,14
